sensor_id;sensor_type;location;lat;lon;timestamp;P1;durP1;ratioP1;P2;durP2;ratioP2
49458;SDS011;35354;51.296;16.924;2022-09-12T00:01:48;6.65;;;5.90;;
49458;SDS011;35354;51.296;16.924;2022-09-12T00:04:13;6.65;;;5.32;;
49458;SDS011;35354;51.296;16.924;2022-09-12T00:06:39;6.55;;;5.78;;
49458;SDS011;35354;51.296;16.924;2022-09-12T00:09:11;7.18;;;5.82;;
49458;SDS011;35354;51.296;16.924;2022-09-12T00:11:38;7.10;;;5.75;;
49458;SDS011;35354;51.296;16.924;2022-09-12T00:14:06;6.30;;;5.18;;
49458;SDS011;35354;51.296;16.924;2022-09-12T00:16:34;6.53;;;5.47;;
49458;SDS011;35354;51.296;16.924;2022-09-12T00:19:00;7.88;;;6.13;;
49458;SDS011;35354;51.296;16.924;2022-09-12T00:21:27;8.40;;;6.38;;
49458;SDS011;35354;51.296;16.924;2022-09-12T00:23:52;10.10;;;7.05;;
49458;SDS011;35354;51.296;16.924;2022-09-12T00:26:19;11.65;;;7.35;;
49458;SDS011;35354;51.296;16.924;2022-09-12T00:28:46;9.25;;;6.85;;
49458;SDS011;35354;51.296;16.924;2022-09-12T00:31:12;8.13;;;6.75;;
49458;SDS011;35354;51.296;16.924;2022-09-12T00:33:40;7.85;;;6.22;;
49458;SDS011;35354;51.296;16.924;2022-09-12T00:36:07;8.85;;;6.68;;
49458;SDS011;35354;51.296;16.924;2022-09-12T00:38:34;10.60;;;6.32;;
49458;SDS011;35354;51.296;16.924;2022-09-12T00:41:03;9.60;;;6.78;;
49458;SDS011;35354;51.296;16.924;2022-09-12T00:45:55;10.80;;;5.72;;
49458;SDS011;35354;51.296;16.924;2022-09-12T00:48:34;8.38;;;6.10;;
49458;SDS011;35354;51.296;16.924;2022-09-12T00:51:06;10.10;;;6.35;;
49458;SDS011;35354;51.296;16.924;2022-09-12T00:53:32;9.18;;;6.07;;
49458;SDS011;35354;51.296;16.924;2022-09-12T00:55:58;8.00;;;6.38;;
49458;SDS011;35354;51.296;16.924;2022-09-12T00:58:24;10.50;;;5.68;;
49458;SDS011;35354;51.296;16.924;2022-09-12T01:00:54;6.78;;;5.72;;
49458;SDS011;35354;51.296;16.924;2022-09-12T01:03:21;7.68;;;5.90;;
49458;SDS011;35354;51.296;16.924;2022-09-12T01:05:58;7.00;;;5.50;;
49458;SDS011;35354;51.296;16.924;2022-09-12T01:08:31;8.60;;;6.07;;
49458;SDS011;35354;51.296;16.924;2022-09-12T01:10:58;6.70;;;5.32;;
49458;SDS011;35354;51.296;16.924;2022-09-12T01:13:23;8.07;;;6.10;;
49458;SDS011;35354;51.296;16.924;2022-09-12T01:15:50;8.95;;;6.13;;
49458;SDS011;35354;51.296;16.924;2022-09-12T01:21:20;10.70;;;5.72;;
49458;SDS011;35354;51.296;16.924;2022-09-12T01:26:55;6.80;;;5.82;;
49458;SDS011;35354;51.296;16.924;2022-09-12T01:32:29;8.35;;;5.85;;
49458;SDS011;35354;51.296;16.924;2022-09-12T01:37:51;8.18;;;5.60;;
49458;SDS011;35354;51.296;16.924;2022-09-12T01:43:08;7.63;;;5.70;;
49458;SDS011;35354;51.296;16.924;2022-09-12T01:48:37;8.27;;;5.78;;
49458;SDS011;35354;51.296;16.924;2022-09-12T01:51:10;6.93;;;5.78;;
49458;SDS011;35354;51.296;16.924;2022-09-12T01:53:43;8.75;;;5.60;;
49458;SDS011;35354;51.296;16.924;2022-09-12T01:56:14;6.45;;;5.22;;
49458;SDS011;35354;51.296;16.924;2022-09-12T01:59:09;6.70;;;5.10;;
49458;SDS011;35354;51.296;16.924;2022-09-12T02:01:44;6.40;;;5.40;;
49458;SDS011;35354;51.296;16.924;2022-09-12T02:07:30;8.45;;;6.18;;
49458;SDS011;35354;51.296;16.924;2022-09-12T02:10:06;7.05;;;5.50;;
49458;SDS011;35354;51.296;16.924;2022-09-12T02:12:51;6.40;;;5.80;;
49458;SDS011;35354;51.296;16.924;2022-09-12T02:15:23;10.00;;;5.68;;
49458;SDS011;35354;51.296;16.924;2022-09-12T02:17:53;8.10;;;5.32;;
49458;SDS011;35354;51.296;16.924;2022-09-12T02:20:24;9.02;;;5.85;;
49458;SDS011;35354;51.296;16.924;2022-09-12T02:22:53;10.55;;;5.95;;
49458;SDS011;35354;51.296;16.924;2022-09-12T02:25:21;6.10;;;5.50;;
49458;SDS011;35354;51.296;16.924;2022-09-12T02:27:53;15.23;;;6.25;;
49458;SDS011;35354;51.296;16.924;2022-09-12T02:30:25;7.20;;;5.68;;
49458;SDS011;35354;51.296;16.924;2022-09-12T02:33:00;9.88;;;5.55;;
49458;SDS011;35354;51.296;16.924;2022-09-12T02:37:58;6.63;;;5.88;;
49458;SDS011;35354;51.296;16.924;2022-09-12T02:40:29;7.53;;;5.65;;
49458;SDS011;35354;51.296;16.924;2022-09-12T02:42:56;7.30;;;5.82;;
49458;SDS011;35354;51.296;16.924;2022-09-12T02:45:22;8.32;;;6.07;;
49458;SDS011;35354;51.296;16.924;2022-09-12T02:50:28;6.90;;;6.00;;
49458;SDS011;35354;51.296;16.924;2022-09-12T02:52:54;8.27;;;5.85;;
49458;SDS011;35354;51.296;16.924;2022-09-12T02:55:24;8.32;;;6.05;;
49458;SDS011;35354;51.296;16.924;2022-09-12T02:57:50;7.53;;;6.10;;
49458;SDS011;35354;51.296;16.924;2022-09-12T03:00:15;11.38;;;6.28;;
49458;SDS011;35354;51.296;16.924;2022-09-12T03:08:45;8.65;;;6.40;;
49458;SDS011;35354;51.296;16.924;2022-09-12T03:11:32;8.32;;;6.15;;
49458;SDS011;35354;51.296;16.924;2022-09-12T03:17:21;6.93;;;6.03;;
49458;SDS011;35354;51.296;16.924;2022-09-12T03:28:34;8.68;;;6.50;;
49458;SDS011;35354;51.296;16.924;2022-09-12T03:31:10;8.70;;;6.80;;
49458;SDS011;35354;51.296;16.924;2022-09-12T03:33:38;7.10;;;5.90;;
49458;SDS011;35354;51.296;16.924;2022-09-12T03:36:03;8.57;;;6.53;;
49458;SDS011;35354;51.296;16.924;2022-09-12T03:38:29;11.93;;;6.65;;
49458;SDS011;35354;51.296;16.924;2022-09-12T03:40:55;10.75;;;6.57;;
49458;SDS011;35354;51.296;16.924;2022-09-12T03:43:20;9.48;;;6.40;;
49458;SDS011;35354;51.296;16.924;2022-09-12T03:45:46;11.80;;;6.72;;
49458;SDS011;35354;51.296;16.924;2022-09-12T03:48:15;7.80;;;6.07;;
49458;SDS011;35354;51.296;16.924;2022-09-12T03:50:40;10.10;;;6.97;;
49458;SDS011;35354;51.296;16.924;2022-09-12T03:53:05;8.63;;;6.80;;
49458;SDS011;35354;51.296;16.924;2022-09-12T03:55:31;10.65;;;6.82;;
49458;SDS011;35354;51.296;16.924;2022-09-12T03:57:56;7.38;;;6.57;;
49458;SDS011;35354;51.296;16.924;2022-09-12T04:00:22;7.30;;;6.00;;
49458;SDS011;35354;51.296;16.924;2022-09-12T04:02:47;8.10;;;6.47;;
49458;SDS011;35354;51.296;16.924;2022-09-12T04:05:12;10.88;;;7.35;;
49458;SDS011;35354;51.296;16.924;2022-09-12T04:07:38;8.38;;;6.80;;
49458;SDS011;35354;51.296;16.924;2022-09-12T04:10:04;10.77;;;6.38;;
49458;SDS011;35354;51.296;16.924;2022-09-12T04:12:29;10.32;;;7.43;;
49458;SDS011;35354;51.296;16.924;2022-09-12T04:14:55;10.80;;;6.40;;
49458;SDS011;35354;51.296;16.924;2022-09-12T04:17:20;8.15;;;6.68;;
49458;SDS011;35354;51.296;16.924;2022-09-12T04:19:45;8.82;;;6.68;;
49458;SDS011;35354;51.296;16.924;2022-09-12T04:22:11;9.18;;;7.22;;
49458;SDS011;35354;51.296;16.924;2022-09-12T04:24:36;9.20;;;7.00;;
49458;SDS011;35354;51.296;16.924;2022-09-12T04:27:01;8.63;;;7.25;;
49458;SDS011;35354;51.296;16.924;2022-09-12T04:29:27;7.82;;;6.57;;
49458;SDS011;35354;51.296;16.924;2022-09-12T04:31:53;10.70;;;6.90;;
49458;SDS011;35354;51.296;16.924;2022-09-12T04:34:18;8.68;;;6.57;;
49458;SDS011;35354;51.296;16.924;2022-09-12T04:36:44;7.47;;;6.30;;
49458;SDS011;35354;51.296;16.924;2022-09-12T04:39:09;7.82;;;6.63;;
49458;SDS011;35354;51.296;16.924;2022-09-12T04:41:36;8.48;;;6.53;;
49458;SDS011;35354;51.296;16.924;2022-09-12T04:44:04;6.63;;;5.93;;
49458;SDS011;35354;51.296;16.924;2022-09-12T04:46:33;8.50;;;6.40;;
49458;SDS011;35354;51.296;16.924;2022-09-12T04:49:00;7.25;;;6.30;;
49458;SDS011;35354;51.296;16.924;2022-09-12T04:51:27;8.65;;;6.60;;
49458;SDS011;35354;51.296;16.924;2022-09-12T04:53:56;7.80;;;6.50;;
49458;SDS011;35354;51.296;16.924;2022-09-12T04:56:24;9.50;;;6.57;;
49458;SDS011;35354;51.296;16.924;2022-09-12T04:58:50;8.18;;;6.68;;
49458;SDS011;35354;51.296;16.924;2022-09-12T05:01:17;7.53;;;6.50;;
49458;SDS011;35354;51.296;16.924;2022-09-12T05:03:44;7.80;;;6.40;;
49458;SDS011;35354;51.296;16.924;2022-09-12T05:06:12;7.68;;;6.40;;
49458;SDS011;35354;51.296;16.924;2022-09-12T05:08:49;8.45;;;6.80;;
49458;SDS011;35354;51.296;16.924;2022-09-12T05:11:18;9.38;;;6.78;;
49458;SDS011;35354;51.296;16.924;2022-09-12T05:13:45;6.28;;;5.68;;
49458;SDS011;35354;51.296;16.924;2022-09-12T05:16:12;7.03;;;5.55;;
49458;SDS011;35354;51.296;16.924;2022-09-12T05:18:39;9.18;;;6.72;;
49458;SDS011;35354;51.296;16.924;2022-09-12T05:21:05;8.60;;;6.70;;
49458;SDS011;35354;51.296;16.924;2022-09-12T05:23:33;11.00;;;6.53;;
49458;SDS011;35354;51.296;16.924;2022-09-12T05:25:59;7.00;;;6.20;;
49458;SDS011;35354;51.296;16.924;2022-09-12T05:28:33;7.60;;;5.70;;
49458;SDS011;35354;51.296;16.924;2022-09-12T05:31:00;8.48;;;5.78;;
49458;SDS011;35354;51.296;16.924;2022-09-12T05:33:28;7.82;;;5.50;;
49458;SDS011;35354;51.296;16.924;2022-09-12T05:35:54;9.32;;;6.13;;
49458;SDS011;35354;51.296;16.924;2022-09-12T05:38:20;7.47;;;6.30;;
49458;SDS011;35354;51.296;16.924;2022-09-12T05:40:45;8.43;;;5.85;;
49458;SDS011;35354;51.296;16.924;2022-09-12T05:43:10;9.70;;;5.57;;
49458;SDS011;35354;51.296;16.924;2022-09-12T05:45:36;8.45;;;5.82;;
49458;SDS011;35354;51.296;16.924;2022-09-12T05:48:02;8.10;;;6.30;;
49458;SDS011;35354;51.296;16.924;2022-09-12T05:50:28;7.47;;;5.53;;
49458;SDS011;35354;51.296;16.924;2022-09-12T05:52:53;7.40;;;5.28;;
49458;SDS011;35354;51.296;16.924;2022-09-12T05:55:19;9.07;;;5.32;;
49458;SDS011;35354;51.296;16.924;2022-09-12T05:57:44;5.82;;;5.22;;
49458;SDS011;35354;51.296;16.924;2022-09-12T06:00:10;6.72;;;5.10;;
49458;SDS011;35354;51.296;16.924;2022-09-12T06:02:37;9.18;;;5.72;;
49458;SDS011;35354;51.296;16.924;2022-09-12T06:05:02;9.40;;;5.57;;
49458;SDS011;35354;51.296;16.924;2022-09-12T06:07:28;5.60;;;4.82;;
49458;SDS011;35354;51.296;16.924;2022-09-12T06:09:53;8.00;;;5.20;;
49458;SDS011;35354;51.296;16.924;2022-09-12T06:12:19;6.40;;;4.90;;
49458;SDS011;35354;51.296;16.924;2022-09-12T06:14:44;6.78;;;4.95;;
49458;SDS011;35354;51.296;16.924;2022-09-12T06:17:10;5.70;;;5.05;;
49458;SDS011;35354;51.296;16.924;2022-09-12T06:19:35;9.32;;;5.43;;
49458;SDS011;35354;51.296;16.924;2022-09-12T06:22:01;9.40;;;5.53;;
49458;SDS011;35354;51.296;16.924;2022-09-12T06:24:27;12.18;;;5.30;;
49458;SDS011;35354;51.296;16.924;2022-09-12T06:26:52;5.68;;;4.80;;
49458;SDS011;35354;51.296;16.924;2022-09-12T06:29:17;11.20;;;4.75;;
49458;SDS011;35354;51.296;16.924;2022-09-12T06:31:43;6.03;;;4.40;;
49458;SDS011;35354;51.296;16.924;2022-09-12T06:34:10;8.80;;;4.80;;
49458;SDS011;35354;51.296;16.924;2022-09-12T06:36:39;7.13;;;4.35;;
49458;SDS011;35354;51.296;16.924;2022-09-12T06:39:07;7.40;;;4.85;;
49458;SDS011;35354;51.296;16.924;2022-09-12T06:41:37;7.03;;;4.40;;
49458;SDS011;35354;51.296;16.924;2022-09-12T06:44:03;6.40;;;4.20;;
49458;SDS011;35354;51.296;16.924;2022-09-12T06:46:28;7.43;;;3.72;;
49458;SDS011;35354;51.296;16.924;2022-09-12T06:48:55;5.65;;;4.00;;
49458;SDS011;35354;51.296;16.924;2022-09-12T06:51:22;4.95;;;4.03;;
49458;SDS011;35354;51.296;16.924;2022-09-12T06:53:48;7.88;;;4.25;;
49458;SDS011;35354;51.296;16.924;2022-09-12T06:56:15;6.80;;;4.57;;
49458;SDS011;35354;51.296;16.924;2022-09-12T06:58:43;5.82;;;4.45;;
49458;SDS011;35354;51.296;16.924;2022-09-12T07:01:10;7.60;;;4.43;;
49458;SDS011;35354;51.296;16.924;2022-09-12T07:03:42;4.90;;;3.80;;
49458;SDS011;35354;51.296;16.924;2022-09-12T07:06:13;5.30;;;3.78;;
49458;SDS011;35354;51.296;16.924;2022-09-12T07:08:40;7.43;;;4.10;;
49458;SDS011;35354;51.296;16.924;2022-09-12T07:11:17;6.18;;;3.60;;
49458;SDS011;35354;51.296;16.924;2022-09-12T07:13:45;8.00;;;3.42;;
49458;SDS011;35354;51.296;16.924;2022-09-12T07:16:12;3.85;;;3.35;;
49458;SDS011;35354;51.296;16.924;2022-09-12T07:18:38;7.72;;;3.45;;
49458;SDS011;35354;51.296;16.924;2022-09-12T07:21:09;5.13;;;2.85;;
49458;SDS011;35354;51.296;16.924;2022-09-12T07:23:36;4.65;;;3.05;;
49458;SDS011;35354;51.296;16.924;2022-09-12T07:26:02;4.47;;;3.08;;
49458;SDS011;35354;51.296;16.924;2022-09-12T07:28:29;7.50;;;2.88;;
49458;SDS011;35354;51.296;16.924;2022-09-12T07:30:55;7.50;;;3.03;;
49458;SDS011;35354;51.296;16.924;2022-09-12T07:33:22;6.30;;;3.00;;
49458;SDS011;35354;51.296;16.924;2022-09-12T07:35:50;4.22;;;2.97;;
49458;SDS011;35354;51.296;16.924;2022-09-12T07:38:18;7.90;;;3.78;;
49458;SDS011;35354;51.296;16.924;2022-09-12T07:40:43;5.28;;;3.10;;
49458;SDS011;35354;51.296;16.924;2022-09-12T07:43:09;7.45;;;3.45;;
49458;SDS011;35354;51.296;16.924;2022-09-12T07:45:34;5.55;;;3.03;;
49458;SDS011;35354;51.296;16.924;2022-09-12T07:47:59;4.93;;;3.65;;
49458;SDS011;35354;51.296;16.924;2022-09-12T07:50:25;6.03;;;2.83;;
49458;SDS011;35354;51.296;16.924;2022-09-12T07:52:52;6.53;;;2.75;;
49458;SDS011;35354;51.296;16.924;2022-09-12T07:55:19;4.63;;;2.85;;
49458;SDS011;35354;51.296;16.924;2022-09-12T07:57:47;4.90;;;3.00;;
49458;SDS011;35354;51.296;16.924;2022-09-12T08:00:14;5.28;;;3.05;;
49458;SDS011;35354;51.296;16.924;2022-09-12T08:02:40;3.90;;;2.85;;
49458;SDS011;35354;51.296;16.924;2022-09-12T08:05:05;6.65;;;3.13;;
49458;SDS011;35354;51.296;16.924;2022-09-12T08:07:32;4.72;;;3.50;;
49458;SDS011;35354;51.296;16.924;2022-09-12T08:09:58;8.02;;;2.97;;
49458;SDS011;35354;51.296;16.924;2022-09-12T08:12:24;6.40;;;3.10;;
49458;SDS011;35354;51.296;16.924;2022-09-12T08:14:51;4.85;;;3.40;;
49458;SDS011;35354;51.296;16.924;2022-09-12T08:17:16;4.43;;;2.88;;
49458;SDS011;35354;51.296;16.924;2022-09-12T08:19:42;6.00;;;3.38;;
49458;SDS011;35354;51.296;16.924;2022-09-12T08:22:07;6.45;;;2.80;;
49458;SDS011;35354;51.296;16.924;2022-09-12T08:24:33;4.57;;;3.63;;
49458;SDS011;35354;51.296;16.924;2022-09-12T08:26:59;5.13;;;3.33;;
49458;SDS011;35354;51.296;16.924;2022-09-12T08:29:24;9.38;;;3.53;;
49458;SDS011;35354;51.296;16.924;2022-09-12T08:31:49;7.97;;;3.70;;
49458;SDS011;35354;51.296;16.924;2022-09-12T08:34:15;4.60;;;3.13;;
49458;SDS011;35354;51.296;16.924;2022-09-12T08:36:42;5.03;;;3.30;;
49458;SDS011;35354;51.296;16.924;2022-09-12T08:39:10;6.95;;;3.63;;
49458;SDS011;35354;51.296;16.924;2022-09-12T08:55:02;7.63;;;3.45;;
49458;SDS011;35354;51.296;16.924;2022-09-12T08:57:30;6.18;;;3.00;;
49458;SDS011;35354;51.296;16.924;2022-09-12T08:59:56;5.05;;;3.00;;
49458;SDS011;35354;51.296;16.924;2022-09-12T09:02:29;4.32;;;2.90;;
49458;SDS011;35354;51.296;16.924;2022-09-12T09:05:17;4.10;;;2.90;;
49458;SDS011;35354;51.296;16.924;2022-09-12T09:11:17;6.70;;;2.95;;
49458;SDS011;35354;51.296;16.924;2022-09-12T09:20:06;5.13;;;3.35;;
49458;SDS011;35354;51.296;16.924;2022-09-12T09:25:19;8.00;;;3.40;;
49458;SDS011;35354;51.296;16.924;2022-09-12T09:28:03;4.93;;;2.97;;
49458;SDS011;35354;51.296;16.924;2022-09-12T09:30:34;5.32;;;2.90;;
49458;SDS011;35354;51.296;16.924;2022-09-12T09:33:00;4.10;;;2.97;;
49458;SDS011;35354;51.296;16.924;2022-09-12T09:35:31;5.45;;;2.92;;
49458;SDS011;35354;51.296;16.924;2022-09-12T09:38:22;3.17;;;2.72;;
49458;SDS011;35354;51.296;16.924;2022-09-12T09:43:28;6.72;;;3.20;;
49458;SDS011;35354;51.296;16.924;2022-09-12T09:45:55;6.35;;;2.90;;
49458;SDS011;35354;51.296;16.924;2022-09-12T09:50:51;5.82;;;3.10;;
49458;SDS011;35354;51.296;16.924;2022-09-12T09:56:01;5.22;;;3.00;;
49458;SDS011;35354;51.296;16.924;2022-09-12T09:58:32;4.90;;;3.30;;
49458;SDS011;35354;51.296;16.924;2022-09-12T10:00:59;7.07;;;3.30;;
49458;SDS011;35354;51.296;16.924;2022-09-12T10:03:30;3.47;;;3.03;;
49458;SDS011;35354;51.296;16.924;2022-09-12T10:05:58;5.40;;;2.92;;
49458;SDS011;35354;51.296;16.924;2022-09-12T10:08:29;8.77;;;3.00;;
49458;SDS011;35354;51.296;16.924;2022-09-12T10:18:46;4.97;;;3.05;;
49458;SDS011;35354;51.296;16.924;2022-09-12T10:23:50;5.78;;;3.25;;
49458;SDS011;35354;51.296;16.924;2022-09-12T10:26:23;7.75;;;3.70;;
49458;SDS011;35354;51.296;16.924;2022-09-12T10:28:51;5.45;;;3.33;;
49458;SDS011;35354;51.296;16.924;2022-09-12T10:31:28;6.25;;;3.33;;
49458;SDS011;35354;51.296;16.924;2022-09-12T10:34:05;4.30;;;3.10;;
49458;SDS011;35354;51.296;16.924;2022-09-12T10:36:45;5.77;;;2.70;;
49458;SDS011;35354;51.296;16.924;2022-09-12T10:39:11;3.53;;;2.88;;
49458;SDS011;35354;51.296;16.924;2022-09-12T10:41:42;3.05;;;2.67;;
49458;SDS011;35354;51.296;16.924;2022-09-12T10:44:22;4.55;;;3.08;;
49458;SDS011;35354;51.296;16.924;2022-09-12T10:46:52;5.07;;;3.38;;
49458;SDS011;35354;51.296;16.924;2022-09-12T10:49:20;5.38;;;3.20;;
49458;SDS011;35354;51.296;16.924;2022-09-12T10:51:48;5.03;;;2.53;;
49458;SDS011;35354;51.296;16.924;2022-09-12T10:54:15;3.17;;;2.88;;
49458;SDS011;35354;51.296;16.924;2022-09-12T11:04:57;3.17;;;2.88;;
49458;SDS011;35354;51.296;16.924;2022-09-12T11:07:45;9.07;;;3.20;;
49458;SDS011;35354;51.296;16.924;2022-09-12T11:10:29;5.20;;;3.20;;
49458;SDS011;35354;51.296;16.924;2022-09-12T11:15:42;4.97;;;3.20;;
49458;SDS011;35354;51.296;16.924;2022-09-12T11:18:47;5.05;;;2.95;;
49458;SDS011;35354;51.296;16.924;2022-09-12T11:21:29;3.30;;;2.58;;
49458;SDS011;35354;51.296;16.924;2022-09-12T11:41:10;4.50;;;2.70;;
49458;SDS011;35354;51.296;16.924;2022-09-12T11:43:49;5.13;;;3.10;;
49458;SDS011;35354;51.296;16.924;2022-09-12T11:49:03;4.05;;;3.03;;
49458;SDS011;35354;51.296;16.924;2022-09-12T11:57:16;3.40;;;2.45;;
49458;SDS011;35354;51.296;16.924;2022-09-12T11:59:57;3.88;;;2.70;;
49458;SDS011;35354;51.296;16.924;2022-09-12T12:05:58;5.47;;;3.05;;
49458;SDS011;35354;51.296;16.924;2022-09-12T12:08:31;4.43;;;2.60;;
49458;SDS011;35354;51.296;16.924;2022-09-12T12:11:03;3.67;;;2.58;;
49458;SDS011;35354;51.296;16.924;2022-09-12T12:16:06;4.05;;;2.80;;
49458;SDS011;35354;51.296;16.924;2022-09-12T12:18:41;3.80;;;2.65;;
49458;SDS011;35354;51.296;16.924;2022-09-12T12:29:02;3.58;;;2.88;;
49458;SDS011;35354;51.296;16.924;2022-09-12T12:31:29;4.03;;;2.83;;
49458;SDS011;35354;51.296;16.924;2022-09-12T12:34:00;3.15;;;2.67;;
49458;SDS011;35354;51.296;16.924;2022-09-12T12:36:29;3.88;;;2.92;;
49458;SDS011;35354;51.296;16.924;2022-09-12T12:41:55;4.13;;;2.80;;
49458;SDS011;35354;51.296;16.924;2022-09-12T12:47:21;5.10;;;2.90;;
49458;SDS011;35354;51.296;16.924;2022-09-12T12:52:31;3.45;;;2.90;;
49458;SDS011;35354;51.296;16.924;2022-09-12T12:55:12;5.10;;;2.80;;
49458;SDS011;35354;51.296;16.924;2022-09-12T12:57:45;3.53;;;2.72;;
49458;SDS011;35354;51.296;16.924;2022-09-12T13:05:41;4.63;;;2.42;;
49458;SDS011;35354;51.296;16.924;2022-09-12T13:10:47;8.45;;;2.80;;
49458;SDS011;35354;51.296;16.924;2022-09-12T13:13:24;5.18;;;3.10;;
49458;SDS011;35354;51.296;16.924;2022-09-12T13:15:52;4.03;;;2.63;;
49458;SDS011;35354;51.296;16.924;2022-09-12T13:18:20;4.40;;;3.08;;
49458;SDS011;35354;51.296;16.924;2022-09-12T13:26:46;4.60;;;3.10;;
49458;SDS011;35354;51.296;16.924;2022-09-12T13:29:23;3.92;;;2.80;;
49458;SDS011;35354;51.296;16.924;2022-09-12T13:31:52;5.10;;;2.60;;
49458;SDS011;35354;51.296;16.924;2022-09-12T13:34:19;4.63;;;2.80;;
49458;SDS011;35354;51.296;16.924;2022-09-12T13:37:11;3.60;;;2.87;;
49458;SDS011;35354;51.296;16.924;2022-09-12T13:39:48;3.80;;;2.92;;
49458;SDS011;35354;51.296;16.924;2022-09-12T13:45:11;3.85;;;2.85;;
49458;SDS011;35354;51.296;16.924;2022-09-12T13:47:42;3.35;;;2.97;;
49458;SDS011;35354;51.296;16.924;2022-09-12T13:50:16;3.00;;;2.70;;
49458;SDS011;35354;51.296;16.924;2022-09-12T13:52:50;3.28;;;2.97;;
49458;SDS011;35354;51.296;16.924;2022-09-12T13:55:40;3.95;;;3.15;;
49458;SDS011;35354;51.296;16.924;2022-09-12T13:58:14;3.78;;;3.13;;
49458;SDS011;35354;51.296;16.924;2022-09-12T14:00:40;5.47;;;3.95;;
49458;SDS011;35354;51.296;16.924;2022-09-12T14:06:09;5.15;;;3.28;;
49458;SDS011;35354;51.296;16.924;2022-09-12T14:08:39;6.55;;;3.28;;
49458;SDS011;35354;51.296;16.924;2022-09-12T14:11:08;4.20;;;3.35;;
49458;SDS011;35354;51.296;16.924;2022-09-12T14:13:36;4.00;;;3.10;;
49458;SDS011;35354;51.296;16.924;2022-09-12T14:16:03;3.55;;;2.40;;
49458;SDS011;35354;51.296;16.924;2022-09-12T14:18:33;3.20;;;2.90;;
49458;SDS011;35354;51.296;16.924;2022-09-12T14:21:07;3.30;;;3.00;;
49458;SDS011;35354;51.296;16.924;2022-09-12T14:23:34;3.88;;;3.08;;
49458;SDS011;35354;51.296;16.924;2022-09-12T14:26:13;3.53;;;2.92;;
49458;SDS011;35354;51.296;16.924;2022-09-12T14:28:41;5.35;;;2.83;;
49458;SDS011;35354;51.296;16.924;2022-09-12T14:33:46;4.35;;;3.08;;
49458;SDS011;35354;51.296;16.924;2022-09-12T14:36:28;4.38;;;3.08;;
49458;SDS011;35354;51.296;16.924;2022-09-12T14:39:06;4.30;;;3.33;;
49458;SDS011;35354;51.296;16.924;2022-09-12T14:41:42;5.47;;;3.40;;
49458;SDS011;35354;51.296;16.924;2022-09-12T14:44:22;5.40;;;3.35;;
49458;SDS011;35354;51.296;16.924;2022-09-12T14:46:50;7.47;;;3.17;;
49458;SDS011;35354;51.296;16.924;2022-09-12T14:57:05;4.43;;;3.40;;
49458;SDS011;35354;51.296;16.924;2022-09-12T14:59:43;4.10;;;3.22;;
49458;SDS011;35354;51.296;16.924;2022-09-12T15:07:37;6.43;;;3.33;;
49458;SDS011;35354;51.296;16.924;2022-09-12T15:10:05;5.25;;;3.97;;
49458;SDS011;35354;51.296;16.924;2022-09-12T15:12:46;6.13;;;4.60;;
49458;SDS011;35354;51.296;16.924;2022-09-12T15:15:13;22.33;;;15.15;;
49458;SDS011;35354;51.296;16.924;2022-09-12T15:17:39;9.13;;;6.10;;
49458;SDS011;35354;51.296;16.924;2022-09-12T15:20:04;6.63;;;3.65;;
49458;SDS011;35354;51.296;16.924;2022-09-12T15:22:30;6.68;;;3.35;;
49458;SDS011;35354;51.296;16.924;2022-09-12T15:24:57;7.32;;;4.97;;
49458;SDS011;35354;51.296;16.924;2022-09-12T15:27:23;6.75;;;4.75;;
49458;SDS011;35354;51.296;16.924;2022-09-12T15:29:50;19.75;;;13.32;;
49458;SDS011;35354;51.296;16.924;2022-09-12T15:32:25;27.85;;;20.60;;
49458;SDS011;35354;51.296;16.924;2022-09-12T15:34:52;22.70;;;15.85;;
49458;SDS011;35354;51.296;16.924;2022-09-12T15:37:18;14.88;;;10.88;;
49458;SDS011;35354;51.296;16.924;2022-09-12T15:39:46;13.32;;;9.50;;
49458;SDS011;35354;51.296;16.924;2022-09-12T15:42:12;40.88;;;31.50;;
49458;SDS011;35354;51.296;16.924;2022-09-12T15:44:38;19.83;;;16.13;;
49458;SDS011;35354;51.296;16.924;2022-09-12T15:47:04;14.35;;;11.32;;
49458;SDS011;35354;51.296;16.924;2022-09-12T15:49:29;10.05;;;8.07;;
49458;SDS011;35354;51.296;16.924;2022-09-12T15:51:56;7.78;;;6.35;;
49458;SDS011;35354;51.296;16.924;2022-09-12T15:54:21;5.30;;;3.95;;
49458;SDS011;35354;51.296;16.924;2022-09-12T15:56:47;7.07;;;3.40;;
49458;SDS011;35354;51.296;16.924;2022-09-12T15:59:12;5.97;;;3.55;;
49458;SDS011;35354;51.296;16.924;2022-09-12T16:01:38;6.13;;;3.55;;
49458;SDS011;35354;51.296;16.924;2022-09-12T16:04:08;7.13;;;4.35;;
49458;SDS011;35354;51.296;16.924;2022-09-12T16:06:45;11.75;;;6.90;;
49458;SDS011;35354;51.296;16.924;2022-09-12T16:09:10;12.05;;;8.27;;
49458;SDS011;35354;51.296;16.924;2022-09-12T16:11:36;19.98;;;12.85;;
49458;SDS011;35354;51.296;16.924;2022-09-12T16:14:02;16.23;;;11.38;;
49458;SDS011;35354;51.296;16.924;2022-09-12T16:16:29;12.57;;;8.93;;
49458;SDS011;35354;51.296;16.924;2022-09-12T16:18:54;11.10;;;7.88;;
49458;SDS011;35354;51.296;16.924;2022-09-12T16:21:20;17.88;;;11.95;;
49458;SDS011;35354;51.296;16.924;2022-09-12T16:23:45;14.70;;;10.75;;
49458;SDS011;35354;51.296;16.924;2022-09-12T16:26:11;14.10;;;10.75;;
49458;SDS011;35354;51.296;16.924;2022-09-12T16:28:36;12.75;;;9.30;;
49458;SDS011;35354;51.296;16.924;2022-09-12T16:31:03;10.77;;;6.75;;
49458;SDS011;35354;51.296;16.924;2022-09-12T16:33:30;9.93;;;7.07;;
49458;SDS011;35354;51.296;16.924;2022-09-12T16:36:02;8.88;;;7.78;;
49458;SDS011;35354;51.296;16.924;2022-09-12T16:38:30;12.90;;;7.47;;
49458;SDS011;35354;51.296;16.924;2022-09-12T16:41:02;9.75;;;6.78;;
49458;SDS011;35354;51.296;16.924;2022-09-12T16:43:29;10.05;;;7.53;;
49458;SDS011;35354;51.296;16.924;2022-09-12T16:46:03;11.02;;;8.80;;
49458;SDS011;35354;51.296;16.924;2022-09-12T16:48:30;6.97;;;6.28;;
49458;SDS011;35354;51.296;16.924;2022-09-12T16:50:58;7.22;;;5.72;;
49458;SDS011;35354;51.296;16.924;2022-09-12T16:55:53;7.03;;;5.20;;
49458;SDS011;35354;51.296;16.924;2022-09-12T16:58:19;8.55;;;5.70;;
49458;SDS011;35354;51.296;16.924;2022-09-12T17:00:44;6.60;;;5.20;;
49458;SDS011;35354;51.296;16.924;2022-09-12T17:03:10;10.13;;;5.40;;
49458;SDS011;35354;51.296;16.924;2022-09-12T17:05:35;8.27;;;5.38;;
49458;SDS011;35354;51.296;16.924;2022-09-12T17:08:01;43.42;;;33.20;;
49458;SDS011;35354;51.296;16.924;2022-09-12T17:10:26;37.08;;;28.13;;
49458;SDS011;35354;51.296;16.924;2022-09-12T17:12:52;26.83;;;20.30;;
49458;SDS011;35354;51.296;16.924;2022-09-12T17:15:17;24.30;;;18.08;;
49458;SDS011;35354;51.296;16.924;2022-09-12T17:17:42;22.80;;;17.77;;
49458;SDS011;35354;51.296;16.924;2022-09-12T17:20:09;19.40;;;14.05;;
49458;SDS011;35354;51.296;16.924;2022-09-12T17:22:35;22.15;;;13.80;;
49458;SDS011;35354;51.296;16.924;2022-09-12T17:25:01;27.23;;;16.27;;
49458;SDS011;35354;51.296;16.924;2022-09-12T17:27:26;21.10;;;13.93;;
49458;SDS011;35354;51.296;16.924;2022-09-12T17:29:51;20.75;;;12.73;;
49458;SDS011;35354;51.296;16.924;2022-09-12T17:32:17;16.13;;;11.60;;
49458;SDS011;35354;51.296;16.924;2022-09-12T17:34:42;17.88;;;11.77;;
49458;SDS011;35354;51.296;16.924;2022-09-12T17:37:07;17.25;;;11.50;;
49458;SDS011;35354;51.296;16.924;2022-09-12T17:39:33;19.02;;;12.75;;
49458;SDS011;35354;51.296;16.924;2022-09-12T17:41:58;20.85;;;13.27;;
49458;SDS011;35354;51.296;16.924;2022-09-12T17:44:24;19.58;;;13.43;;
49458;SDS011;35354;51.296;16.924;2022-09-12T17:46:53;23.77;;;15.25;;
49458;SDS011;35354;51.296;16.924;2022-09-12T17:49:18;23.55;;;15.63;;